Nile, Texas
Current Conditions -  °F | °C
As of 2:53 AM on Friday 21 Nov 2014 (Local Time) from KGRK Reporting Station
Haze Haze  
Wind Chill: 61°   Ceiling: 200
Heat Index: 61°   Visibility: 2.5mi
Dew Point: 61°   Wind: 8mph
Humidity: 100%   Direction: 140°SE
Pressure: 30.05"   Gusts: NA
Location:  30.5951°N, 97.1399°W
Report Text: KGRK 210853Z AUTO 14007KT 2 1/2SM BR OVC002 16/16 A3005 RMK AO2 VIS 2 1/2V3
Loading
Personal Weather Stations






























Interactive Weather Map New forecast layout! Learn more

10-Day Weather Forecast

Advertisements
Track Severe Weather on mobile